sensor_id;sensor_type;location;lat;lon;timestamp;temperature;humidity
7016;DHT22;3548;48.402;9.990;2024-03-23T00:51:49;9.50;99.90
7016;DHT22;3548;48.402;9.990;2024-03-23T00:54:14;9.50;99.90
7016;DHT22;3548;48.402;9.990;2024-03-23T00:56:40;9.40;99.90
7016;DHT22;3548;48.402;9.990;2024-03-23T00:59:05;9.40;99.90
7016;DHT22;3548;48.402;9.990;2024-03-23T01:01:31;9.40;99.90
7016;DHT22;3548;48.402;9.990;2024-03-23T01:03:56;9.40;99.90
7016;DHT22;3548;48.402;9.990;2024-03-23T01:06:22;9.30;99.90
7016;DHT22;3548;48.402;9.990;2024-03-23T01:08:48;9.30;99.90
7016;DHT22;3548;48.402;9.990;2024-03-23T01:11:13;9.30;99.90
7016;DHT22;3548;48.402;9.990;2024-03-23T01:13:39;9.20;99.90
7016;DHT22;3548;48.402;9.990;2024-03-23T01:16:04;9.20;99.90
7016;DHT22;3548;48.402;9.990;2024-03-23T01:18:30;9.20;99.90
7016;DHT22;3548;48.402;9.990;2024-03-23T01:20:55;9.10;99.90
7016;DHT22;3548;48.402;9.990;2024-03-23T01:23:21;9.10;99.90
7016;DHT22;3548;48.402;9.990;2024-03-23T01:25:53;9.10;99.90
7016;DHT22;3548;48.402;9.990;2024-03-23T01:28:20;9.10;99.90
7016;DHT22;3548;48.402;9.990;2024-03-23T01:30:45;9.10;99.90
7016;DHT22;3548;48.402;9.990;2024-03-23T01:33:11;9.10;99.90
7016;DHT22;3548;48.402;9.990;2024-03-23T01:35:37;9.10;99.90
7016;DHT22;3548;48.402;9.990;2024-03-23T01:38:03;9.00;99.90
7016;DHT22;3548;48.402;9.990;2024-03-23T01:40:29;9.00;99.90
7016;DHT22;3548;48.402;9.990;2024-03-23T01:43:04;9.00;99.90
7016;DHT22;3548;48.402;9.990;2024-03-23T01:45:31;8.90;99.90
7016;DHT22;3548;48.402;9.990;2024-03-23T01:47:57;8.90;99.90
7016;DHT22;3548;48.402;9.990;2024-03-23T01:50:22;8.90;99.90
7016;DHT22;3548;48.402;9.990;2024-03-23T01:52:49;8.90;99.90
7016;DHT22;3548;48.402;9.990;2024-03-23T01:55:15;8.90;99.90
7016;DHT22;3548;48.402;9.990;2024-03-23T01:57:41;8.90;99.90
7016;DHT22;3548;48.402;9.990;2024-03-23T02:00:07;8.90;99.90
7016;DHT22;3548;48.402;9.990;2024-03-23T02:02:34;8.90;99.90
7016;DHT22;3548;48.402;9.990;2024-03-23T02:05:00;8.90;99.90
7016;DHT22;3548;48.402;9.990;2024-03-23T02:07:25;8.90;99.90
7016;DHT22;3548;48.402;9.990;2024-03-23T02:09:51;8.90;99.90
7016;DHT22;3548;48.402;9.990;2024-03-23T02:12:18;9.00;99.90
7016;DHT22;3548;48.402;9.990;2024-03-23T02:14:44;9.00;99.90
7016;DHT22;3548;48.402;9.990;2024-03-23T02:17:09;9.10;99.90
7016;DHT22;3548;48.402;9.990;2024-03-23T02:19:35;9.10;99.90
7016;DHT22;3548;48.402;9.990;2024-03-23T02:22:01;9.20;99.90
7016;DHT22;3548;48.402;9.990;2024-03-23T02:24:26;9.20;99.90
7016;DHT22;3548;48.402;9.990;2024-03-23T02:26:52;9.30;99.90
7016;DHT22;3548;48.402;9.990;2024-03-23T02:29:17;9.40;99.90
7016;DHT22;3548;48.402;9.990;2024-03-23T02:31:45;9.40;99.90
7016;DHT22;3548;48.402;9.990;2024-03-23T02:34:10;9.50;99.90
7016;DHT22;3548;48.402;9.990;2024-03-23T02:36:36;9.60;99.90
7016;DHT22;3548;48.402;9.990;2024-03-23T02:39:01;9.60;99.90
7016;DHT22;3548;48.402;9.990;2024-03-23T02:41:27;9.70;99.90
7016;DHT22;3548;48.402;9.990;2024-03-23T02:43:52;9.70;99.90
7016;DHT22;3548;48.402;9.990;2024-03-23T02:46:18;9.70;99.90
7016;DHT22;3548;48.402;9.990;2024-03-23T02:48:44;9.80;99.90
7016;DHT22;3548;48.402;9.990;2024-03-23T02:51:09;9.80;99.90
7016;DHT22;3548;48.402;9.990;2024-03-23T02:53:35;9.80;99.90
7016;DHT22;3548;48.402;9.990;2024-03-23T02:56:00;9.80;99.90
7016;DHT22;3548;48.402;9.990;2024-03-23T02:58:26;9.80;99.90
7016;DHT22;3548;48.402;9.990;2024-03-23T03:00:52;9.90;99.90
7016;DHT22;3548;48.402;9.990;2024-03-23T03:03:17;9.90;99.90
7016;DHT22;3548;48.402;9.990;2024-03-23T03:05:43;9.90;99.90
7016;DHT22;3548;48.402;9.990;2024-03-23T03:08:08;9.90;99.90
7016;DHT22;3548;48.402;9.990;2024-03-23T03:10:34;9.90;99.90
7016;DHT22;3548;48.402;9.990;2024-03-23T03:13:01;9.90;99.90
7016;DHT22;3548;48.402;9.990;2024-03-23T03:15:27;9.80;99.90
7016;DHT22;3548;48.402;9.990;2024-03-23T03:17:53;9.80;99.90
7016;DHT22;3548;48.402;9.990;2024-03-23T03:20:19;9.80;99.90
7016;DHT22;3548;48.402;9.990;2024-03-23T03:22:47;9.80;99.90
7016;DHT22;3548;48.402;9.990;2024-03-23T03:25:12;9.80;99.90
7016;DHT22;3548;48.402;9.990;2024-03-23T03:27:38;9.80;99.90
7016;DHT22;3548;48.402;9.990;2024-03-23T03:30:04;9.80;99.90
7016;DHT22;3548;48.402;9.990;2024-03-23T03:32:32;9.70;99.90
7016;DHT22;3548;48.402;9.990;2024-03-23T03:34:58;9.80;99.90
7016;DHT22;3548;48.402;9.990;2024-03-23T03:37:24;9.80;99.90
7016;DHT22;3548;48.402;9.990;2024-03-23T03:39:49;9.80;99.90
7016;DHT22;3548;48.402;9.990;2024-03-23T03:42:15;9.90;99.90
7016;DHT22;3548;48.402;9.990;2024-03-23T03:44:40;10.00;99.90
7016;DHT22;3548;48.402;9.990;2024-03-23T03:47:06;10.00;99.90
7016;DHT22;3548;48.402;9.990;2024-03-23T03:49:32;10.10;99.90
7016;DHT22;3548;48.402;9.990;2024-03-23T03:51:58;10.10;99.90
7016;DHT22;3548;48.402;9.990;2024-03-23T03:54:23;10.10;99.90
7016;DHT22;3548;48.402;9.990;2024-03-23T03:56:49;10.10;99.90
7016;DHT22;3548;48.402;9.990;2024-03-23T03:59:15;10.10;99.90
7016;DHT22;3548;48.402;9.990;2024-03-23T04:01:41;10.10;99.90
7016;DHT22;3548;48.402;9.990;2024-03-23T04:04:06;10.00;99.90
7016;DHT22;3548;48.402;9.990;2024-03-23T04:06:32;10.00;99.90
7016;DHT22;3548;48.402;9.990;2024-03-23T04:08:58;9.90;99.90
7016;DHT22;3548;48.402;9.990;2024-03-23T04:11:24;9.80;99.90
7016;DHT22;3548;48.402;9.990;2024-03-23T04:13:49;9.80;99.90
7016;DHT22;3548;48.402;9.990;2024-03-23T04:16:35;9.70;99.90
7016;DHT22;3548;48.402;9.990;2024-03-23T04:19:01;9.60;99.90
7016;DHT22;3548;48.402;9.990;2024-03-23T04:21:27;9.50;99.90
7016;DHT22;3548;48.402;9.990;2024-03-23T04:23:52;9.40;99.90
7016;DHT22;3548;48.402;9.990;2024-03-23T04:26:18;9.40;99.90
7016;DHT22;3548;48.402;9.990;2024-03-23T04:28:43;9.30;99.90
7016;DHT22;3548;48.402;9.990;2024-03-23T04:31:09;9.30;99.90
7016;DHT22;3548;48.402;9.990;2024-03-23T04:33:35;9.20;99.90
7016;DHT22;3548;48.402;9.990;2024-03-23T04:36:00;9.10;99.90
7016;DHT22;3548;48.402;9.990;2024-03-23T04:38:26;9.10;99.90
7016;DHT22;3548;48.402;9.990;2024-03-23T04:40:57;9.00;99.90
7016;DHT22;3548;48.402;9.990;2024-03-23T04:43:22;9.00;99.90
7016;DHT22;3548;48.402;9.990;2024-03-23T04:45:48;8.90;99.90
7016;DHT22;3548;48.402;9.990;2024-03-23T04:48:14;8.90;99.90
7016;DHT22;3548;48.402;9.990;2024-03-23T04:50:39;8.80;99.90
7016;DHT22;3548;48.402;9.990;2024-03-23T04:53:06;8.80;99.90
7016;DHT22;3548;48.402;9.990;2024-03-23T04:55:32;8.70;99.90
7016;DHT22;3548;48.402;9.990;2024-03-23T04:57:57;8.70;99.90
7016;DHT22;3548;48.402;9.990;2024-03-23T05:00:23;8.70;99.90
7016;DHT22;3548;48.402;9.990;2024-03-23T05:02:49;8.70;99.90
7016;DHT22;3548;48.402;9.990;2024-03-23T05:05:14;8.70;99.90
7016;DHT22;3548;48.402;9.990;2024-03-23T05:07:40;8.70;99.90
7016;DHT22;3548;48.402;9.990;2024-03-23T05:10:09;8.70;99.90
7016;DHT22;3548;48.402;9.990;2024-03-23T05:12:39;8.80;99.90
7016;DHT22;3548;48.402;9.990;2024-03-23T05:15:06;8.80;99.90
7016;DHT22;3548;48.402;9.990;2024-03-23T05:17:33;8.80;99.90
7016;DHT22;3548;48.402;9.990;2024-03-23T05:19:58;8.80;99.90
7016;DHT22;3548;48.402;9.990;2024-03-23T05:22:24;8.80;99.90
7016;DHT22;3548;48.402;9.990;2024-03-23T05:24:49;8.80;99.90
7016;DHT22;3548;48.402;9.990;2024-03-23T05:27:15;8.80;99.90
7016;DHT22;3548;48.402;9.990;2024-03-23T05:29:41;8.80;99.90
7016;DHT22;3548;48.402;9.990;2024-03-23T05:32:07;8.80;99.90
7016;DHT22;3548;48.402;9.990;2024-03-23T05:34:32;8.80;99.90
7016;DHT22;3548;48.402;9.990;2024-03-23T05:36:58;8.90;99.90
7016;DHT22;3548;48.402;9.990;2024-03-23T05:39:23;8.90;99.90
7016;DHT22;3548;48.402;9.990;2024-03-23T05:41:49;8.90;99.90
7016;DHT22;3548;48.402;9.990;2024-03-23T05:44:15;9.00;99.90
7016;DHT22;3548;48.402;9.990;2024-03-23T05:46:41;9.00;99.90
7016;DHT22;3548;48.402;9.990;2024-03-23T05:49:08;9.10;99.90
7016;DHT22;3548;48.402;9.990;2024-03-23T05:51:34;9.20;99.90
7016;DHT22;3548;48.402;9.990;2024-03-23T05:54:00;9.20;99.90
7016;DHT22;3548;48.402;9.990;2024-03-23T05:56:26;9.30;99.90
7016;DHT22;3548;48.402;9.990;2024-03-23T05:58:52;9.30;99.90
7016;DHT22;3548;48.402;9.990;2024-03-23T06:01:18;9.30;99.90
7016;DHT22;3548;48.402;9.990;2024-03-23T06:03:43;9.30;99.90
7016;DHT22;3548;48.402;9.990;2024-03-23T06:06:10;9.40;99.90
7016;DHT22;3548;48.402;9.990;2024-03-23T06:08:37;9.40;99.90
7016;DHT22;3548;48.402;9.990;2024-03-23T06:11:03;9.40;99.90
7016;DHT22;3548;48.402;9.990;2024-03-23T06:13:29;9.40;99.90
7016;DHT22;3548;48.402;9.990;2024-03-23T06:15:56;9.50;99.90
7016;DHT22;3548;48.402;9.990;2024-03-23T06:18:21;9.50;99.90
7016;DHT22;3548;48.402;9.990;2024-03-23T06:20:47;9.50;99.90
7016;DHT22;3548;48.402;9.990;2024-03-23T06:23:13;9.50;99.90
7016;DHT22;3548;48.402;9.990;2024-03-23T06:25:40;9.50;99.90
7016;DHT22;3548;48.402;9.990;2024-03-23T06:28:05;9.50;99.90
7016;DHT22;3548;48.402;9.990;2024-03-23T06:30:31;9.50;99.90
7016;DHT22;3548;48.402;9.990;2024-03-23T06:32:57;9.50;99.90
7016;DHT22;3548;48.402;9.990;2024-03-23T06:35:23;9.50;99.90
7016;DHT22;3548;48.402;9.990;2024-03-23T06:37:48;9.60;99.90
7016;DHT22;3548;48.402;9.990;2024-03-23T06:40:14;9.70;99.90
7016;DHT22;3548;48.402;9.990;2024-03-23T06:42:40;9.80;99.90
7016;DHT22;3548;48.402;9.990;2024-03-23T06:45:05;9.80;99.90
7016;DHT22;3548;48.402;9.990;2024-03-23T06:47:31;9.70;99.90
7016;DHT22;3548;48.402;9.990;2024-03-23T06:49:57;9.70;99.90
7016;DHT22;3548;48.402;9.990;2024-03-23T06:52:23;9.60;99.90
7016;DHT22;3548;48.402;9.990;2024-03-23T06:54:48;9.50;99.90
7016;DHT22;3548;48.402;9.990;2024-03-23T06:57:14;9.50;99.90
7016;DHT22;3548;48.402;9.990;2024-03-23T06:59:39;9.40;99.90
7016;DHT22;3548;48.402;9.990;2024-03-23T07:02:08;9.30;99.90
7016;DHT22;3548;48.402;9.990;2024-03-23T07:04:34;9.30;99.90
7016;DHT22;3548;48.402;9.990;2024-03-23T07:07:00;9.30;99.90
7016;DHT22;3548;48.402;9.990;2024-03-23T07:09:30;9.30;99.90
7016;DHT22;3548;48.402;9.990;2024-03-23T07:11:56;9.30;99.90
7016;DHT22;3548;48.402;9.990;2024-03-23T07:14:23;9.30;99.90
7016;DHT22;3548;48.402;9.990;2024-03-23T07:16:49;9.30;99.90
7016;DHT22;3548;48.402;9.990;2024-03-23T07:19:16;9.40;99.90
7016;DHT22;3548;48.402;9.990;2024-03-23T07:21:42;9.40;99.90
7016;DHT22;3548;48.402;9.990;2024-03-23T07:24:08;9.40;99.90
7016;DHT22;3548;48.402;9.990;2024-03-23T07:26:34;9.40;99.90
7016;DHT22;3548;48.402;9.990;2024-03-23T07:28:59;9.40;99.90
7016;DHT22;3548;48.402;9.990;2024-03-23T07:31:25;9.40;99.90
7016;DHT22;3548;48.402;9.990;2024-03-23T07:33:50;9.50;99.90
7016;DHT22;3548;48.402;9.990;2024-03-23T07:36:16;9.50;99.90
7016;DHT22;3548;48.402;9.990;2024-03-23T07:38:42;9.50;99.90
7016;DHT22;3548;48.402;9.990;2024-03-23T07:41:12;9.50;99.90
7016;DHT22;3548;48.402;9.990;2024-03-23T07:43:39;9.50;99.90
7016;DHT22;3548;48.402;9.990;2024-03-23T07:46:06;9.50;99.90
7016;DHT22;3548;48.402;9.990;2024-03-23T07:48:32;9.50;99.90
7016;DHT22;3548;48.402;9.990;2024-03-23T07:53:27;9.50;99.90
7016;DHT22;3548;48.402;9.990;2024-03-23T07:55:55;9.50;99.90
7016;DHT22;3548;48.402;9.990;2024-03-23T07:58:21;9.50;99.90
7016;DHT22;3548;48.402;9.990;2024-03-23T08:00:46;9.50;99.90
7016;DHT22;3548;48.402;9.990;2024-03-23T08:03:12;9.50;99.90
7016;DHT22;3548;48.402;9.990;2024-03-23T08:05:37;9.50;99.90
7016;DHT22;3548;48.402;9.990;2024-03-23T08:08:03;9.50;99.90
7016;DHT22;3548;48.402;9.990;2024-03-23T08:10:29;9.40;99.90
7016;DHT22;3548;48.402;9.990;2024-03-23T08:12:54;9.30;99.90
7016;DHT22;3548;48.402;9.990;2024-03-23T08:15:20;9.30;99.90
7016;DHT22;3548;48.402;9.990;2024-03-23T08:17:45;9.30;99.90
7016;DHT22;3548;48.402;9.990;2024-03-23T08:20:11;9.30;99.90
7016;DHT22;3548;48.402;9.990;2024-03-23T08:22:37;9.40;99.90
7016;DHT22;3548;48.402;9.990;2024-03-23T08:25:03;9.40;99.90
7016;DHT22;3548;48.402;9.990;2024-03-23T08:27:28;9.40;99.90
7016;DHT22;3548;48.402;9.990;2024-03-23T08:29:54;9.40;99.90
7016;DHT22;3548;48.402;9.990;2024-03-23T08:32:19;9.40;99.90
7016;DHT22;3548;48.402;9.990;2024-03-23T08:34:45;9.50;99.90
7016;DHT22;3548;48.402;9.990;2024-03-23T08:37:10;9.60;99.90
7016;DHT22;3548;48.402;9.990;2024-03-23T08:39:36;9.70;99.90
7016;DHT22;3548;48.402;9.990;2024-03-23T08:42:01;9.70;99.90
7016;DHT22;3548;48.402;9.990;2024-03-23T08:44:27;9.60;99.90
7016;DHT22;3548;48.402;9.990;2024-03-23T08:46:56;9.60;99.90
7016;DHT22;3548;48.402;9.990;2024-03-23T08:49:21;9.50;99.90
7016;DHT22;3548;48.402;9.990;2024-03-23T08:51:47;9.60;99.90
7016;DHT22;3548;48.402;9.990;2024-03-23T08:54:12;9.60;99.90
7016;DHT22;3548;48.402;9.990;2024-03-23T08:56:38;9.70;99.90
7016;DHT22;3548;48.402;9.990;2024-03-23T08:59:03;9.70;99.90
7016;DHT22;3548;48.402;9.990;2024-03-23T09:01:29;9.70;99.90
7016;DHT22;3548;48.402;9.990;2024-03-23T09:03:54;9.40;99.90
7016;DHT22;3548;48.402;9.990;2024-03-23T09:06:21;9.20;99.90
7016;DHT22;3548;48.402;9.990;2024-03-23T09:08:46;9.10;99.90
7016;DHT22;3548;48.402;9.990;2024-03-23T09:11:13;9.00;99.90
7016;DHT22;3548;48.402;9.990;2024-03-23T09:13:39;8.90;99.90
7016;DHT22;3548;48.402;9.990;2024-03-23T09:16:06;8.80;99.90
7016;DHT22;3548;48.402;9.990;2024-03-23T09:18:33;8.80;99.90
7016;DHT22;3548;48.402;9.990;2024-03-23T09:20:59;8.70;99.90
7016;DHT22;3548;48.402;9.990;2024-03-23T09:23:25;8.70;99.90
7016;DHT22;3548;48.402;9.990;2024-03-23T09:25:50;8.80;99.90
7016;DHT22;3548;48.402;9.990;2024-03-23T09:28:16;8.90;99.90
7016;DHT22;3548;48.402;9.990;2024-03-23T09:30:41;8.90;99.90
7016;DHT22;3548;48.402;9.990;2024-03-23T09:33:11;8.90;99.90
7016;DHT22;3548;48.402;9.990;2024-03-23T09:35:40;9.00;99.90
7016;DHT22;3548;48.402;9.990;2024-03-23T09:38:06;9.10;99.90
7016;DHT22;3548;48.402;9.990;2024-03-23T09:40:43;9.20;99.90
7016;DHT22;3548;48.402;9.990;2024-03-23T09:43:09;9.50;99.90
7016;DHT22;3548;48.402;9.990;2024-03-23T09:45:39;9.70;99.90
7016;DHT22;3548;48.402;9.990;2024-03-23T09:48:06;9.70;99.90
7016;DHT22;3548;48.402;9.990;2024-03-23T09:50:32;9.50;99.90
7016;DHT22;3548;48.402;9.990;2024-03-23T09:52:57;9.60;99.90
7016;DHT22;3548;48.402;9.990;2024-03-23T09:55:23;9.60;99.90
7016;DHT22;3548;48.402;9.990;2024-03-23T09:57:50;9.50;99.90
7016;DHT22;3548;48.402;9.990;2024-03-23T10:00:16;9.60;99.90
7016;DHT22;3548;48.402;9.990;2024-03-23T10:02:42;9.60;99.90
7016;DHT22;3548;48.402;9.990;2024-03-23T10:05:21;9.60;99.90
7016;DHT22;3548;48.402;9.990;2024-03-23T10:07:50;9.60;99.90
7016;DHT22;3548;48.402;9.990;2024-03-23T10:10:16;9.80;99.90
7016;DHT22;3548;48.402;9.990;2024-03-23T10:12:49;9.90;98.00
7016;DHT22;3548;48.402;9.990;2024-03-23T10:17:44;9.80;96.50
7016;DHT22;3548;48.402;9.990;2024-03-23T10:20:10;9.80;97.00
7016;DHT22;3548;48.402;9.990;2024-03-23T10:22:39;9.70;97.30
7016;DHT22;3548;48.402;9.990;2024-03-23T10:25:09;9.70;97.40
7016;DHT22;3548;48.402;9.990;2024-03-23T10:27:35;9.70;97.00
7016;DHT22;3548;48.402;9.990;2024-03-23T10:30:12;9.50;96.60
7016;DHT22;3548;48.402;9.990;2024-03-23T10:32:40;9.20;96.40
7016;DHT22;3548;48.402;9.990;2024-03-23T10:35:19;9.00;96.50
7016;DHT22;3548;48.402;9.990;2024-03-23T10:37:45;8.90;96.90
7016;DHT22;3548;48.402;9.990;2024-03-23T10:40:15;8.80;97.00
7016;DHT22;3548;48.402;9.990;2024-03-23T10:42:41;8.90;97.50
7016;DHT22;3548;48.402;9.990;2024-03-23T10:45:08;8.90;97.40
7016;DHT22;3548;48.402;9.990;2024-03-23T10:47:35;9.00;97.40
7016;DHT22;3548;48.402;9.990;2024-03-23T10:50:04;8.90;97.40
7016;DHT22;3548;48.402;9.990;2024-03-23T10:52:36;8.90;97.60
7016;DHT22;3548;48.402;9.990;2024-03-23T10:55:05;9.00;97.20
7016;DHT22;3548;48.402;9.990;2024-03-23T10:57:48;8.90;97.70
7016;DHT22;3548;48.402;9.990;2024-03-23T11:00:15;9.00;97.80
7016;DHT22;3548;48.402;9.990;2024-03-23T11:02:41;9.10;98.00
7016;DHT22;3548;48.402;9.990;2024-03-23T11:07:52;9.20;97.70
7016;DHT22;3548;48.402;9.990;2024-03-23T11:10:31;9.10;97.80
7016;DHT22;3548;48.402;9.990;2024-03-23T11:12:57;9.00;97.90
7016;DHT22;3548;48.402;9.990;2024-03-23T11:15:23;8.90;97.50
7016;DHT22;3548;48.402;9.990;2024-03-23T11:18:06;8.90;97.50
7016;DHT22;3548;48.402;9.990;2024-03-23T11:20:35;8.90;96.90
7016;DHT22;3548;48.402;9.990;2024-03-23T11:23:01;8.90;97.20
7016;DHT22;3548;48.402;9.990;2024-03-23T11:25:27;8.90;96.60
7016;DHT22;3548;48.402;9.990;2024-03-23T11:27:55;8.90;96.00
7016;DHT22;3548;48.402;9.990;2024-03-23T11:32:50;9.00;95.50
7016;DHT22;3548;48.402;9.990;2024-03-23T11:35:35;9.20;94.30
7016;DHT22;3548;48.402;9.990;2024-03-23T11:38:15;9.40;93.10
7016;DHT22;3548;48.402;9.990;2024-03-23T11:40:45;9.80;92.40
7016;DHT22;3548;48.402;9.990;2024-03-23T11:43:13;10.10;92.00
7016;DHT22;3548;48.402;9.990;2024-03-23T11:45:59;10.80;88.20
7016;DHT22;3548;48.402;9.990;2024-03-23T11:48:28;10.80;86.40
7016;DHT22;3548;48.402;9.990;2024-03-23T11:50:55;10.80;86.50
7016;DHT22;3548;48.402;9.990;2024-03-23T11:53:24;10.80;86.10
7016;DHT22;3548;48.402;9.990;2024-03-23T11:55:55;10.70;83.30
7016;DHT22;3548;48.402;9.990;2024-03-23T11:58:21;10.60;83.60
7016;DHT22;3548;48.402;9.990;2024-03-23T12:01:02;10.30;87.70
7016;DHT22;3548;48.402;9.990;2024-03-23T12:03:30;10.00;90.60
7016;DHT22;3548;48.402;9.990;2024-03-23T12:05:57;9.30;92.30
7016;DHT22;3548;48.402;9.990;2024-03-23T12:08:31;8.40;93.60
7016;DHT22;3548;48.402;9.990;2024-03-23T12:13:31;8.10;93.40
7016;DHT22;3548;48.402;9.990;2024-03-23T12:16:10;8.30;93.50
7016;DHT22;3548;48.402;9.990;2024-03-23T12:18:36;8.50;93.90
7016;DHT22;3548;48.402;9.990;2024-03-23T12:21:02;8.80;92.10
7016;DHT22;3548;48.402;9.990;2024-03-23T12:23:28;8.90;93.10
7016;DHT22;3548;48.402;9.990;2024-03-23T12:25:54;9.00;92.10
7016;DHT22;3548;48.402;9.990;2024-03-23T12:28:19;8.90;92.60
7016;DHT22;3548;48.402;9.990;2024-03-23T12:30:45;8.80;93.30
7016;DHT22;3548;48.402;9.990;2024-03-23T12:33:10;8.90;91.70
7016;DHT22;3548;48.402;9.990;2024-03-23T12:35:36;8.80;92.20
7016;DHT22;3548;48.402;9.990;2024-03-23T12:38:02;8.80;91.60
7016;DHT22;3548;48.402;9.990;2024-03-23T12:40:27;8.50;91.10
7016;DHT22;3548;48.402;9.990;2024-03-23T12:42:54;8.50;91.90
7016;DHT22;3548;48.402;9.990;2024-03-23T12:45:19;8.50;92.00
7016;DHT22;3548;48.402;9.990;2024-03-23T12:47:45;8.40;91.90
7016;DHT22;3548;48.402;9.990;2024-03-23T12:50:11;8.10;92.20
7016;DHT22;3548;48.402;9.990;2024-03-23T12:52:37;8.00;93.00
7016;DHT22;3548;48.402;9.990;2024-03-23T12:55:03;8.00;93.60
7016;DHT22;3548;48.402;9.990;2024-03-23T12:57:32;8.00;93.90
7016;DHT22;3548;48.402;9.990;2024-03-23T12:59:58;8.20;93.70
7016;DHT22;3548;48.402;9.990;2024-03-23T13:02:23;8.30;93.80
7016;DHT22;3548;48.402;9.990;2024-03-23T13:04:53;8.20;94.10
7016;DHT22;3548;48.402;9.990;2024-03-23T13:07:19;8.30;94.60
7016;DHT22;3548;48.402;9.990;2024-03-23T13:09:45;8.50;94.90
7016;DHT22;3548;48.402;9.990;2024-03-23T13:12:11;8.60;94.60
7016;DHT22;3548;48.402;9.990;2024-03-23T13:14:40;8.40;94.90
7016;DHT22;3548;48.402;9.990;2024-03-23T13:17:07;8.20;95.20
7016;DHT22;3548;48.402;9.990;2024-03-23T13:19:33;8.30;95.50
7016;DHT22;3548;48.402;9.990;2024-03-23T13:22:00;8.50;95.80
7016;DHT22;3548;48.402;9.990;2024-03-23T13:24:29;8.60;95.60
7016;DHT22;3548;48.402;9.990;2024-03-23T13:26:55;8.80;94.70
7016;DHT22;3548;48.402;9.990;2024-03-23T13:29:21;8.80;94.60
7016;DHT22;3548;48.402;9.990;2024-03-23T13:31:48;8.60;94.70
7016;DHT22;3548;48.402;9.990;2024-03-23T13:34:14;8.50;95.30
7016;DHT22;3548;48.402;9.990;2024-03-23T13:36:41;8.40;94.90
7016;DHT22;3548;48.402;9.990;2024-03-23T13:39:07;8.40;95.40
7016;DHT22;3548;48.402;9.990;2024-03-23T13:44:03;8.10;95.70
7016;DHT22;3548;48.402;9.990;2024-03-23T13:46:28;8.10;96.00
7016;DHT22;3548;48.402;9.990;2024-03-23T13:48:54;8.30;96.30
7016;DHT22;3548;48.402;9.990;2024-03-23T13:51:23;8.30;95.70
7016;DHT22;3548;48.402;9.990;2024-03-23T13:53:50;8.20;95.80
7016;DHT22;3548;48.402;9.990;2024-03-23T13:56:16;8.20;96.00
7016;DHT22;3548;48.402;9.990;2024-03-23T13:58:41;8.20;96.10
7016;DHT22;3548;48.402;9.990;2024-03-23T14:01:11;8.20;95.80
7016;DHT22;3548;48.402;9.990;2024-03-23T14:03:37;8.20;95.70
7016;DHT22;3548;48.402;9.990;2024-03-23T14:06:03;8.20;95.70
7016;DHT22;3548;48.402;9.990;2024-03-23T14:08:28;8.30;95.50
7016;DHT22;3548;48.402;9.990;2024-03-23T14:10:54;8.20;95.60
7016;DHT22;3548;48.402;9.990;2024-03-23T14:13:20;8.10;95.80
7016;DHT22;3548;48.402;9.990;2024-03-23T14:15:45;8.10;95.60
7016;DHT22;3548;48.402;9.990;2024-03-23T14:18:11;8.00;95.80
7016;DHT22;3548;48.402;9.990;2024-03-23T14:20:36;8.20;95.50
7016;DHT22;3548;48.402;9.990;2024-03-23T14:23:02;8.50;95.00
7016;DHT22;3548;48.402;9.990;2024-03-23T14:25:28;8.60;93.40
7016;DHT22;3548;48.402;9.990;2024-03-23T14:27:54;8.80;91.80
7016;DHT22;3548;48.402;9.990;2024-03-23T14:30:20;8.80;91.90
7016;DHT22;3548;48.402;9.990;2024-03-23T14:32:45;8.90;92.30
7016;DHT22;3548;48.402;9.990;2024-03-23T14:35:11;8.90;92.10
7016;DHT22;3548;48.402;9.990;2024-03-23T14:37:37;8.70;91.80
7016;DHT22;3548;48.402;9.990;2024-03-23T14:40:04;8.70;91.40
7016;DHT22;3548;48.402;9.990;2024-03-23T14:42:29;8.80;91.70
7016;DHT22;3548;48.402;9.990;2024-03-23T14:44:56;8.80;91.20
7016;DHT22;3548;48.402;9.990;2024-03-23T14:47:22;9.00;91.30
7016;DHT22;3548;48.402;9.990;2024-03-23T14:49:47;9.00;91.60
7016;DHT22;3548;48.402;9.990;2024-03-23T14:52:18;9.10;91.80
7016;DHT22;3548;48.402;9.990;2024-03-23T14:54:44;9.20;92.00
7016;DHT22;3548;48.402;9.990;2024-03-23T14:57:09;9.40;92.20
7016;DHT22;3548;48.402;9.990;2024-03-23T14:59:35;9.60;92.60
7016;DHT22;3548;48.402;9.990;2024-03-23T15:02:01;9.80;92.40
7016;DHT22;3548;48.402;9.990;2024-03-23T15:04:27;9.80;91.70
7016;DHT22;3548;48.402;9.990;2024-03-23T15:06:52;9.90;92.00
7016;DHT22;3548;48.402;9.990;2024-03-23T15:09:18;9.90;91.80
7016;DHT22;3548;48.402;9.990;2024-03-23T15:11:44;9.90;92.00
7016;DHT22;3548;48.402;9.990;2024-03-23T15:14:09;9.80;91.60
7016;DHT22;3548;48.402;9.990;2024-03-23T15:16:36;9.70;91.40
7016;DHT22;3548;48.402;9.990;2024-03-23T15:19:02;9.60;91.70
7016;DHT22;3548;48.402;9.990;2024-03-23T15:21:27;9.40;91.90
7016;DHT22;3548;48.402;9.990;2024-03-23T15:23:53;9.30;91.70
7016;DHT22;3548;48.402;9.990;2024-03-23T15:26:18;9.20;91.70
7016;DHT22;3548;48.402;9.990;2024-03-23T15:28:48;9.20;91.60
7016;DHT22;3548;48.402;9.990;2024-03-23T15:31:22;9.10;91.40
7016;DHT22;3548;48.402;9.990;2024-03-23T15:33:48;9.10;91.60
7016;DHT22;3548;48.402;9.990;2024-03-23T15:36:14;9.00;91.70
7016;DHT22;3548;48.402;9.990;2024-03-23T15:38:39;8.90;91.70
7016;DHT22;3548;48.402;9.990;2024-03-23T15:41:05;8.90;91.90
7016;DHT22;3548;48.402;9.990;2024-03-23T15:43:31;8.80;92.00
7016;DHT22;3548;48.402;9.990;2024-03-23T15:46:04;8.50;91.70
7016;DHT22;3548;48.402;9.990;2024-03-23T15:48:30;8.30;92.80
7016;DHT22;3548;48.402;9.990;2024-03-23T15:50:58;8.30;93.30
7016;DHT22;3548;48.402;9.990;2024-03-23T15:53:25;8.20;93.70
7016;DHT22;3548;48.402;9.990;2024-03-23T15:55:58;8.10;93.90
7016;DHT22;3548;48.402;9.990;2024-03-23T15:58:24;7.90;94.30
7016;DHT22;3548;48.402;9.990;2024-03-23T16:03:22;7.70;96.70
7016;DHT22;3548;48.402;9.990;2024-03-23T16:05:54;7.00;99.90
7016;DHT22;3548;48.402;9.990;2024-03-23T16:08:20;5.90;99.90
7016;DHT22;3548;48.402;9.990;2024-03-23T16:10:46;5.80;99.90
7016;DHT22;3548;48.402;9.990;2024-03-23T16:13:12;5.60;99.90
7016;DHT22;3548;48.402;9.990;2024-03-23T16:15:37;5.40;99.90
7016;DHT22;3548;48.402;9.990;2024-03-23T16:18:03;5.40;99.90
7016;DHT22;3548;48.402;9.990;2024-03-23T16:20:29;5.40;99.90
7016;DHT22;3548;48.402;9.990;2024-03-23T16:22:56;5.40;99.90
7016;DHT22;3548;48.402;9.990;2024-03-23T16:25:21;5.40;99.90
7016;DHT22;3548;48.402;9.990;2024-03-23T16:27:47;5.60;99.90
7016;DHT22;3548;48.402;9.990;2024-03-23T16:30:13;5.80;99.90
7016;DHT22;3548;48.402;9.990;2024-03-23T16:32:39;5.90;99.90
7016;DHT22;3548;48.402;9.990;2024-03-23T16:35:05;6.00;99.90
7016;DHT22;3548;48.402;9.990;2024-03-23T16:37:31;6.00;99.90
7016;DHT22;3548;48.402;9.990;2024-03-23T16:39:56;5.90;99.90
7016;DHT22;3548;48.402;9.990;2024-03-23T16:42:22;5.90;99.90
7016;DHT22;3548;48.402;9.990;2024-03-23T16:44:47;5.90;99.90
7016;DHT22;3548;48.402;9.990;2024-03-23T16:47:13;6.00;99.90
7016;DHT22;3548;48.402;9.990;2024-03-23T16:49:39;5.90;99.90
7016;DHT22;3548;48.402;9.990;2024-03-23T16:52:04;5.90;99.90
7016;DHT22;3548;48.402;9.990;2024-03-23T16:54:30;5.90;99.90
7016;DHT22;3548;48.402;9.990;2024-03-23T16:56:56;5.90;99.90
7016;DHT22;3548;48.402;9.990;2024-03-23T16:59:21;5.90;99.90
7016;DHT22;3548;48.402;9.990;2024-03-23T17:01:47;5.90;99.90
7016;DHT22;3548;48.402;9.990;2024-03-23T17:04:13;5.80;99.90
7016;DHT22;3548;48.402;9.990;2024-03-23T17:06:38;5.80;99.90
7016;DHT22;3548;48.402;9.990;2024-03-23T17:09:05;5.80;99.90
7016;DHT22;3548;48.402;9.990;2024-03-23T17:11:35;5.80;99.90
7016;DHT22;3548;48.402;9.990;2024-03-23T17:14:01;5.80;99.90
7016;DHT22;3548;48.402;9.990;2024-03-23T17:16:26;5.80;99.90
7016;DHT22;3548;48.402;9.990;2024-03-23T17:18:56;5.80;99.90
7016;DHT22;3548;48.402;9.990;2024-03-23T17:21:21;5.70;99.90